This is the latest recevied weather packets stored in our database for station/object OE-11344. If no packets are shown the sender has not sent any weather packets the latest 10 day(s).
| Time | Temp. | Humidity | Pressure | Rain* | Wind** | Luminosity | Snow |
|---|---|---|---|---|---|---|---|
| 1788034285 | 11.11° C | 83% | 853.5 hPa | 0 mm | - | 0 W/m² | - |
| 1788033912 | 11.11° C | 85% | 853.5 hPa | 0 mm | - | 0 W/m² | - |
| 1788033312 | 11.11° C | 84% | 853.5 hPa | 0 mm | - | 0 W/m² | - |
| 1788032485 | 11.11° C | 84% | 853.5 hPa | 0 mm | - | 0 W/m² | - |
| 1788032112 | 10.56° C | 86% | 853.4 hPa | 0 mm | - | 0 W/m² | - |
| 1788031512 | 11.11° C | 84% | 853.3 hPa | 0 mm | - | 0 W/m² | - |
| 1788030685 | 11.67° C | 79% | 853.1 hPa | 0 mm | - | 0 W/m² | - |
| 1788030312 | 11.11° C | 84% | 853.1 hPa | 0 mm | - | 0 W/m² | - |
| 1788029712 | 11.11° C | 85% | 853 hPa | 0 mm | - | 0 W/m² | - |
| 1788028886 | 11.11° C | 83% | 853 hPa | 0 mm | - | 0 W/m² | - |
| 1788028512 | 11.67° C | 82% | 853 hPa | 0 mm | - | 0 W/m² | - |
| 1788027912 | 11.67° C | 83% | 852.8 hPa | 0 mm | - | 0 W/m² | - |
| 1788027085 | 11.67° C | 82% | 852.8 hPa | 0 mm | - | 6 W/m² | - |
| 1788026712 | 12.22° C | 81% | 852.8 hPa | 0 mm | - | 6 W/m² | - |
| 1788026112 | 12.22° C | 83% | 852.8 hPa | 0 mm | - | 6 W/m² | - |
| 1788025285 | 12.78° C | 81% | 852.9 hPa | 0 mm | - | 12 W/m² | - |
| 1788024912 | 12.78° C | 83% | 852.9 hPa | 0 mm | - | 12 W/m² | - |
| 1788024312 | 12.78° C | 84% | 852.9 hPa | 0 mm | - | 18 W/m² | - |
| 1788023485 | 13.33° C | 83% | 852.9 hPa | 0 mm | - | 18 W/m² | - |
| 1788023111 | 13.33° C | 82% | 853 hPa | 0 mm | - | 24 W/m² | - |
| 1788022512 | 13.33° C | 81% | 853 hPa | 0 mm | - | 36 W/m² | - |
| 1788021685 | 13.33° C | 78% | 852.9 hPa | 0 mm | - | 60 W/m² | - |
| 1788021312 | 13.33° C | 80% | 852.9 hPa | 0 mm | - | 30 W/m² | - |
| 1788020711 | 13.33° C | 77% | 852.9 hPa | 0 mm | - | 48 W/m² | - |
| 1788019885 | 13.89° C | 78% | 852.9 hPa | 0 mm | - | 85 W/m² | - |
* Rain latest hour (hover to see other rain measurements)
** Current wind speed in m/s (hover to see current wind gust speed)